Aérodrome :







RETROUVEZ-NOUS SUR...

 
LOGIN :

S'inscrire | Disclaimer

   EN    FR    IT 

 









Légende :    VFR   VFR Marginal   IFR   IFR Intensif   IFR Très Intensif
Visi : 
Plafond : 
>= 8 km
>= 3000ft
5 à 8 km
1000 à 3000 ft
1500m à 5 km
500 à 1000 ft
800 à 1500m
200 à 500 ft
< 800m
< 200 ft
Symboles :   Orages  Brouillard  Fortes neiges  Fortes précipitations  Vent > 20 kt






- Altitude de l'aérodrome : 13 ft
- Code IATA : SXM


TNCM - Princess Juliana Int.

DERNIER METAR :
  • 191700Z 06015KT 9999 FEW018 BKN038 27/21 Q1019 TEMPO SHRA

METARs EXPIRÉS :
  • 191600Z 05017KT 9999 SCT018 BKN038 27/20 Q1019 NOSIG
  • 191500Z 05016KT 9999 SCT017 BKN035 27/20 Q1020 TEMPO SHRA
  • 191431Z 05015G26KT 030V090 9999 SCT017 BKN035 26/21 Q1020 TEMPO SHRA

TAF TNCM
Valide du 19 à 12h jusqu'au 20 à 12h UTC


191146Z 1912/2012 05015KT P6SM VCSH SCT018 BKN035
TEMPO 1912/1916 -SHRA BKN016
FM191600 07018G26KT P6SM VCSH SCT018 BKN040
FM192300 10009KT P6SM -SHRA SCT018 BKN050



MET'MAP, la Météo Aéronautique d'un coup d'oeil ! - Copyright ORBIFLY Décembre 2007 - Disclaimer

ORBIFLY MET'MAP TEAM :

Programmation & Développement : Alexandra Zaïnal
Sur une idée originale de : Baudouin d'Aumeries
Assistance à la programmation : Marc-Olivier Méhu
Soutien technique & logistique : Manuel Goepfert

Contact : metmap@orbifly.com




SOURCES & CREDITS :

   NOAA